Time;durP1;ratioP1;P1;durP2;ratioP2;P2;SDS_P1;SDS_P2;PMS_P1;PMS_P2;Temp;Humidity;BMP_temperature;BMP_pressure;BME280_temperature;BME280_humidity;BME280_pressure;Samples;Min_cycle;Max_cycle;Signal;HPM_P1;HPM_P2
2023/12/07 00:00:56;;;;;;;8.00;7.03;;;7.10;77.40;5.40;96542.00;;;;5032059;28;20897;-88
2023/12/07 00:03:23;;;;;;;8.10;7.20;;;7.00;77.30;5.30;96547.00;;;;5032122;28;20197;-88
2023/12/07 00:05:50;;;;;;;7.77;6.77;;;7.00;77.10;5.20;96544.00;;;;5032630;28;20205;-88
2023/12/07 00:08:19;;;;;;;7.90;6.87;;;6.90;77.20;5.20;96544.00;;;;5032470;28;20658;-88
2023/12/07 00:10:46;;;;;;;7.83;6.43;;;6.90;77.30;5.10;96549.00;;;;5032306;28;20224;-88
2023/12/07 00:13:14;;;;;;;9.33;6.90;;;6.80;77.40;5.10;96556.00;;;;5029790;28;20221;-89
2023/12/07 00:15:41;;;;;;;9.50;7.13;;;6.80;77.60;5.00;96551.00;;;;5012757;28;20281;-88
2023/12/07 00:18:08;;;;;;;9.60;7.60;;;6.70;77.60;5.00;96555.00;;;;5022677;28;20205;-88
2023/12/07 00:20:35;;;;;;;8.57;7.67;;;6.70;77.70;5.00;96557.00;;;;5032483;28;20232;-88
2023/12/07 00:23:03;;;;;;;8.40;7.37;;;6.60;77.90;5.00;96556.00;;;;5031195;28;20212;-87
2023/12/07 00:25:32;;;;;;;9.33;8.07;;;6.60;78.00;4.90;96560.00;;;;5031528;28;20209;-88
2023/12/07 00:27:59;;;;;;;10.33;8.10;;;6.60;78.30;4.90;96554.00;;;;5006345;28;20307;-88
2023/12/07 00:30:26;;;;;;;9.17;7.73;;;6.60;78.50;4.90;96560.00;;;;5032054;28;20267;-88
2023/12/07 00:32:54;;;;;;;9.77;8.57;;;6.60;78.70;4.90;96552.00;;;;5027417;28;20217;-88
2023/12/07 00:35:22;;;;;;;9.40;8.30;;;6.50;78.70;4.90;96555.00;;;;5036103;28;20194;-87
2023/12/07 00:37:50;;;;;;;11.00;8.60;;;6.50;78.70;4.90;96544.00;;;;5037379;28;20201;-88
2023/12/07 00:40:17;;;;;;;9.70;8.50;;;6.60;78.70;4.90;96554.00;;;;5047104;28;20263;-88
2023/12/07 00:42:46;;;;;;;9.93;8.40;;;6.50;78.50;4.80;96554.00;;;;5047641;28;20255;-87
2023/12/07 00:45:13;;;;;;;10.23;8.87;;;6.50;78.40;4.80;96550.00;;;;5053720;28;20189;-91
2023/12/07 00:47:41;;;;;;;11.57;8.43;;;6.50;78.40;4.80;96550.00;;;;5062270;28;20181;-91
2023/12/07 00:50:13;;;;;;;10.57;8.60;;;6.40;78.20;4.70;96560.00;;;;5062358;28;20264;-91
2023/12/07 00:52:40;;;;;;;9.43;8.27;;;6.40;78.20;4.70;96547.00;;;;5062027;28;20223;-91
2023/12/07 00:55:07;;;;;;;10.63;8.57;;;6.40;78.10;4.60;96550.00;;;;5061640;28;20189;-88
2023/12/07 00:57:35;;;;;;;9.20;7.63;;;6.30;77.90;4.60;96558.00;;;;5041910;28;20210;-88
2023/12/07 01:00:05;;;;;;;11.30;8.57;;;6.30;78.00;4.60;96557.00;;;;5036768;28;20197;-88
2023/12/07 01:02:32;;;;;;;10.27;8.67;;;6.30;78.10;4.50;96554.00;;;;5035825;28;20225;-88
2023/12/07 01:04:59;;;;;;;10.53;8.20;;;6.20;78.20;4.50;96555.00;;;;5035208;28;20585;-88
2023/12/07 01:07:26;;;;;;;10.67;8.73;;;6.20;78.30;4.50;96560.00;;;;5035205;28;20210;-88
2023/12/07 01:09:53;;;;;;;11.43;8.87;;;6.20;78.40;4.50;96571.00;;;;5034944;28;20655;-88
2023/12/07 01:12:21;;;;;;;9.73;8.23;;;6.20;78.60;4.50;96577.00;;;;5035424;28;20203;-88
2023/12/07 01:14:48;;;;;;;9.63;7.87;;;6.10;78.60;4.50;96579.00;;;;5035661;28;20626;-88
2023/12/07 01:17:17;;;;;;;11.17;8.30;;;6.20;78.90;4.50;96577.00;;;;5034132;28;20201;-88
2023/12/07 01:19:45;;;;;;;11.87;9.57;;;6.20;79.10;4.50;96577.00;;;;5035221;28;20224;-88
2023/12/07 01:22:12;;;;;;;11.57;9.30;;;6.20;80.00;4.50;96578.00;;;;5034982;28;20201;-87
2023/12/07 01:24:39;;;;;;;10.83;9.60;;;6.10;79.40;4.50;96582.00;;;;5035445;28;20240;-88
2023/12/07 01:27:06;;;;;;;10.03;8.83;;;6.20;79.50;4.50;96575.00;;;;5034809;28;20700;-88
2023/12/07 01:29:33;;;;;;;10.93;9.00;;;6.20;79.50;4.50;96577.00;;;;5033591;28;20204;-87
2023/12/07 01:32:01;;;;;;;12.13;8.70;;;6.20;79.50;4.50;96581.00;;;;5029972;28;20217;-88
2023/12/07 01:34:29;;;;;;;10.63;8.50;;;6.20;79.50;4.60;96587.00;;;;5026690;28;20229;-88
2023/12/07 01:36:57;;;;;;;10.50;8.80;;;6.20;79.40;4.60;96591.00;;;;5034470;28;20201;-88
2023/12/07 01:39:24;;;;;;;10.33;8.47;;;6.20;80.00;4.60;96593.00;;;;5034387;28;20705;-88
2023/12/07 01:41:52;;;;;;;10.37;8.33;;;6.20;79.30;4.50;96589.00;;;;5035372;28;20296;-88
2023/12/07 01:44:20;;;;;;;11.43;8.43;;;6.20;79.20;4.60;96591.00;;;;5034256;28;20259;-88
2023/12/07 01:46:47;;;;;;;10.90;9.03;;;6.20;79.00;4.50;96583.00;;;;5035130;28;20221;-88
2023/12/07 01:49:15;;;;;;;10.97;8.47;;;6.20;78.80;4.50;96583.00;;;;5033961;28;20311;-88
2023/12/07 01:51:43;;;;;;;11.13;8.67;;;6.20;78.70;4.50;96586.00;;;;5033713;28;20213;-88
2023/12/07 01:54:11;;;;;;;10.43;8.63;;;6.10;78.50;4.40;96577.00;;;;5034904;28;20225;-88
2023/12/07 01:56:38;;;;;;;11.17;9.07;;;6.10;78.50;4.40;96583.00;;;;5034846;28;20207;-87
2023/12/07 01:59:06;;;;;;;11.90;8.80;;;6.10;78.50;4.40;96590.00;;;;5034746;28;20288;-88
2023/12/07 02:01:33;;;;;;;9.17;7.83;;;6.00;78.40;4.30;96586.00;;;;5035011;28;20275;-88
2023/12/07 02:04:00;;;;;;;10.13;8.53;;;6.00;78.40;4.30;96597.00;;;;5034636;28;20578;-88
2023/12/07 02:06:28;;;;;;;10.63;8.23;;;6.10;78.50;4.30;96602.00;;;;5030023;28;20247;-88
2023/12/07 02:08:57;;;;;;;10.20;8.57;;;6.00;78.50;4.20;96601.00;;;;5022909;28;20212;-89
2023/12/07 02:11:24;;;;;;;11.57;8.97;;;5.90;78.40;4.20;96596.00;;;;5034013;28;20209;-88
2023/12/07 02:13:55;;;;;;;10.90;8.90;;;5.90;78.50;4.20;96595.00;;;;5033953;28;20652;-88
2023/12/07 02:16:32;;;;;;;10.20;9.07;;;5.90;78.70;4.10;96597.00;;;;5034528;28;20182;-88
2023/12/07 02:19:22;;;;;;;12.73;8.97;;;5.90;78.80;4.10;96600.00;;;;5029145;28;20571;-88
2023/12/07 02:21:56;;;;;;;12.27;8.80;;;5.90;78.90;4.10;96602.00;;;;5033898;28;20228;-89
2023/12/07 02:24:28;;;;;;;12.10;8.70;;;5.80;79.00;4.20;96604.00;;;;5032328;28;20201;-87
2023/12/07 02:26:57;;;;;;;10.00;7.97;;;5.80;79.10;4.20;96601.00;;;;5033713;28;20197;-88
2023/12/07 02:29:25;;;;;;;9.87;8.63;;;5.90;79.30;4.20;96607.00;;;;5033413;28;20207;-87
2023/12/07 02:31:52;;;;;;;10.83;8.53;;;5.90;79.40;4.20;96617.00;;;;5032232;28;20285;-88
2023/12/07 02:34:20;;;;;;;11.47;9.10;;;6.00;79.70;4.20;96620.00;;;;5034086;28;20228;-88
2023/12/07 02:36:52;;;;;;;11.03;9.20;;;5.90;79.90;4.30;96614.00;;;;5033623;28;20204;-88
2023/12/07 02:39:22;;;;;;;10.83;8.43;;;5.90;80.00;4.30;96611.00;;;;5032294;28;20586;-88
2023/12/07 02:41:51;;;;;;;12.27;9.10;;;5.90;80.00;4.30;96608.00;;;;5028738;28;20305;-88
2023/12/07 02:44:20;;;;;;;10.87;7.80;;;6.00;80.00;4.30;96604.00;;;;5034128;28;20205;-88
2023/12/07 02:46:47;;;;;;;13.20;9.23;;;6.00;79.90;4.40;96610.00;;;;5033872;28;20276;-88
2023/12/07 02:49:14;;;;;;;13.27;9.47;;;6.00;79.90;4.40;96610.00;;;;5025710;28;20205;-88
2023/12/07 02:51:42;;;;;;;11.77;8.50;;;6.10;79.90;4.40;96607.00;;;;5033311;28;20219;-88
2023/12/07 02:54:09;;;;;;;11.13;8.87;;;6.10;79.80;4.40;96613.00;;;;5033433;28;20676;-88
2023/12/07 02:56:36;;;;;;;13.87;9.80;;;6.10;79.70;4.40;96621.00;;;;5032720;28;20201;-89
2023/12/07 02:59:03;;;;;;;11.73;9.27;;;6.10;79.70;4.40;96614.00;;;;5033974;28;20190;-88
2023/12/07 03:01:32;;;;;;;10.77;8.90;;;6.10;79.50;4.40;96609.00;;;;5029168;28;20609;-88
2023/12/07 03:03:59;;;;;;;10.23;8.90;;;6.10;79.30;4.40;96612.00;;;;5030533;28;20197;-88
2023/12/07 03:06:27;;;;;;;11.07;8.73;;;6.10;79.10;4.40;96613.00;;;;5033984;28;20332;-88
2023/12/07 03:08:55;;;;;;;11.37;9.17;;;6.10;79.00;4.40;96614.00;;;;5033616;28;20228;-88
2023/12/07 03:11:24;;;;;;;11.00;8.87;;;6.10;79.10;4.40;96619.00;;;;5036495;28;20902;-89
2023/12/07 03:13:51;;;;;;;12.80;9.10;;;6.10;79.10;4.40;96618.00;;;;5035977;28;20250;-88
2023/12/07 03:16:18;;;;;;;10.77;8.70;;;6.10;79.10;4.40;96632.00;;;;5049986;28;20249;-88
2023/12/07 03:18:47;;;;;;;10.73;8.57;;;6.10;79.00;4.30;96626.00;;;;5059588;28;20185;-90
2023/12/07 03:21:14;;;;;;;11.40;9.00;;;6.10;79.00;4.30;96621.00;;;;5059332;28;20247;-90
2023/12/07 03:23:42;;;;;;;11.87;8.77;;;6.00;78.90;4.30;96634.00;;;;5058967;28;20240;-91
2023/12/07 03:26:09;;;;;;;9.73;8.50;;;6.00;78.90;4.20;96635.00;;;;5059031;28;20240;-88
2023/12/07 03:28:37;;;;;;;9.80;7.53;;;6.00;78.90;4.20;96629.00;;;;5048586;28;20208;-87
2023/12/07 03:31:05;;;;;;;11.83;9.00;;;6.00;79.00;4.20;96647.00;;;;5031030;28;20233;-88
2023/12/07 03:33:32;;;;;;;10.63;8.47;;;6.00;79.00;4.20;96646.00;;;;5031060;28;20225;-88
2023/12/07 03:36:02;;;;;;;10.23;8.00;;;6.00;78.90;4.20;96647.00;;;;5032513;28;20216;-87
2023/12/07 03:38:29;;;;;;;10.63;8.77;;;5.90;78.80;4.20;96650.00;;;;5026773;28;20236;-88
2023/12/07 03:40:56;;;;;;;10.00;8.53;;;5.90;78.90;4.20;96652.00;;;;5006650;28;20235;-88
2023/12/07 03:43:23;;;;;;;10.73;8.10;;;5.90;79.20;4.20;96647.00;;;;5032390;28;20212;-88
2023/12/07 03:45:52;;;;;;;10.73;8.50;;;5.90;79.30;4.30;96655.00;;;;5033387;28;20293;-88
2023/12/07 03:48:19;;;;;;;10.77;8.90;;;6.00;79.60;4.30;96655.00;;;;5032853;28;20291;-88
2023/12/07 03:50:46;;;;;;;9.73;8.37;;;6.00;79.80;4.30;96659.00;;;;5031643;28;20307;-88
2023/12/07 03:53:15;;;;;;;10.90;8.27;;;6.00;79.80;4.30;96666.00;;;;5032815;28;20256;-88
2023/12/07 03:55:43;;;;;;;10.37;8.77;;;6.00;79.70;4.30;96661.00;;;;5032647;28;20197;-88
2023/12/07 03:58:10;;;;;;;12.17;9.37;;;6.00;79.80;4.40;96663.00;;;;5029696;28;20198;-88
2023/12/07 04:00:37;;;;;;;10.50;8.87;;;6.00;79.70;4.40;96668.00;;;;5032302;28;20221;-88
2023/12/07 04:03:04;;;;;;;9.93;8.30;;;6.00;79.70;4.40;96665.00;;;;5031359;28;20205;-88
2023/12/07 04:05:32;;;;;;;10.37;8.97;;;6.10;79.70;4.40;96672.00;;;;5032849;28;20197;-88
2023/12/07 04:07:59;;;;;;;10.37;8.17;;;6.10;79.70;4.50;96678.00;;;;5034825;28;20205;-88
2023/12/07 04:10:28;;;;;;;9.67;7.80;;;6.10;79.70;4.50;96679.00;;;;5034485;28;20217;-87
2023/12/07 04:12:59;;;;;;;10.57;8.67;;;6.10;79.70;4.50;96677.00;;;;5036464;28;20212;-88
2023/12/07 04:15:26;;;;;;;9.20;8.17;;;6.30;80.00;4.60;96684.00;;;;5035957;28;20252;-88
2023/12/07 04:17:53;;;;;;;10.93;8.90;;;6.20;80.00;4.60;96687.00;;;;5036372;28;20739;-88
2023/12/07 04:20:21;;;;;;;9.97;8.50;;;6.20;80.00;4.60;96687.00;;;;5036492;28;20225;-88
2023/12/07 04:22:49;;;;;;;10.23;8.67;;;6.30;79.90;4.60;96686.00;;;;5035917;28;20193;-87
2023/12/07 04:25:18;;;;;;;11.13;8.87;;;6.30;79.70;4.60;96692.00;;;;5035615;28;20229;-88
2023/12/07 04:27:47;;;;;;;10.37;8.20;;;6.30;79.60;4.60;96695.00;;;;5035560;28;20197;-88
2023/12/07 04:30:15;;;;;;;11.70;8.60;;;6.30;79.50;4.60;96685.00;;;;5035661;28;20252;-88
2023/12/07 04:32:42;;;;;;;10.67;8.50;;;6.30;79.60;4.60;96688.00;;;;5034289;28;20545;-88
2023/12/07 04:35:09;;;;;;;11.97;8.57;;;6.30;79.50;4.70;96695.00;;;;5035574;28;20264;-88
2023/12/07 04:37:37;;;;;;;11.93;9.20;;;6.30;79.50;4.70;96691.00;;;;5036207;28;20624;-88
2023/12/07 04:40:06;;;;;;;8.93;8.00;;;6.30;79.40;4.70;96692.00;;;;5035783;28;20228;-88
2023/12/07 04:42:33;;;;;;;10.47;7.97;;;6.30;79.10;4.60;96688.00;;;;5035825;28;20229;-88
2023/12/07 04:45:02;;;;;;;11.00;8.50;;;6.30;79.10;4.60;96687.00;;;;5032627;28;20554;-87
2023/12/07 04:47:30;;;;;;;12.20;9.37;;;6.30;78.90;4.60;96685.00;;;;5036242;28;20228;-87
2023/12/07 04:49:57;;;;;;;10.50;8.63;;;6.30;78.70;4.50;96692.00;;;;5036298;28;20236;-87
2023/12/07 04:52:24;;;;;;;11.37;8.77;;;6.30;78.50;4.50;96687.00;;;;5035550;28;20276;-88
2023/12/07 04:54:52;;;;;;;16.90;10.63;;;6.20;78.40;4.50;96701.00;;;;5035959;28;20225;-87
2023/12/07 04:57:19;;;;;;;13.27;10.37;;;6.20;78.40;4.40;96692.00;;;;5035816;28;20219;-87
2023/12/07 04:59:47;;;;;;;15.07;10.17;;;6.20;78.20;4.40;96699.00;;;;5035414;28;20208;-87
2023/12/07 05:02:16;;;;;;;12.03;9.33;;;6.10;78.20;4.30;96701.00;;;;5034928;28;20600;-87
2023/12/07 05:04:44;;;;;;;13.60;9.57;;;6.10;78.10;4.30;96701.00;;;;5035668;28;20811;-87
2023/12/07 05:07:12;;;;;;;11.83;9.53;;;6.10;78.20;4.30;96713.00;;;;5036556;28;20285;-88
2023/12/07 05:09:40;;;;;;;12.27;9.23;;;6.10;78.20;4.20;96714.00;;;;5035895;28;20209;-87
2023/12/07 05:12:08;;;;;;;13.33;9.53;;;6.00;78.30;4.20;96707.00;;;;5034912;28;20248;-88
2023/12/07 05:14:36;;;;;;;11.83;8.90;;;5.90;78.40;4.20;96704.00;;;;5034323;28;20689;-87
2023/12/07 05:17:05;;;;;;;13.33;10.50;;;5.90;78.60;4.20;96703.00;;;;5034366;28;20874;-87
2023/12/07 05:19:34;;;;;;;13.10;9.47;;;5.90;78.60;4.20;96704.00;;;;5033302;28;20200;-87
2023/12/07 05:22:01;;;;;;;11.77;9.47;;;5.90;78.60;4.10;96703.00;;;;5034202;28;20617;-87
2023/12/07 05:24:30;;;;;;;12.73;9.80;;;5.90;78.60;4.10;96700.00;;;;5034639;28;20654;-87
2023/12/07 05:26:57;;;;;;;11.90;9.07;;;5.90;78.50;4.10;96701.00;;;;5035707;28;20203;-87
2023/12/07 05:29:24;;;;;;;12.00;9.43;;;5.80;78.40;4.10;96703.00;;;;5034125;28;20369;-87
2023/12/07 05:31:52;;;;;;;13.20;9.67;;;5.90;78.50;4.00;96707.00;;;;5026468;28;20221;-87
2023/12/07 05:34:24;;;;;;;9.97;8.37;;;5.80;78.30;4.00;96703.00;;;;5034159;28;20742;-87
2023/12/07 05:36:54;;;;;;;10.57;8.60;;;5.80;78.30;4.00;96713.00;;;;5031471;28;20197;-87
2023/12/07 05:39:21;;;;;;;12.37;9.63;;;5.80;78.50;4.00;96708.00;;;;5037259;28;20304;-87
2023/12/07 05:41:50;;;;;;;12.27;9.27;;;5.70;78.60;4.00;96716.00;;;;5037541;28;20217;-88
2023/12/07 05:44:21;;;;;;;11.63;9.47;;;5.70;78.70;4.00;96717.00;;;;5043436;28;20204;-87
2023/12/07 05:46:48;;;;;;;10.97;9.00;;;5.70;78.80;4.00;96722.00;;;;5057298;28;20200;-88
2023/12/07 05:49:18;;;;;;;12.53;9.33;;;5.70;78.80;3.90;96729.00;;;;5060581;28;20658;-88
2023/12/07 05:51:45;;;;;;;10.87;9.47;;;5.70;78.90;3.90;96719.00;;;;5061104;28;20251;-90
2023/12/07 05:54:14;;;;;;;11.93;9.33;;;5.70;79.50;3.90;96717.00;;;;5060847;28;20236;-87
2023/12/07 05:56:43;;;;;;;12.53;10.43;;;5.70;78.40;3.90;96709.00;;;;5060892;28;20208;-87
2023/12/07 05:59:10;;;;;;;14.00;10.60;;;5.60;78.20;3.80;96725.00;;;;5044074;28;20201;-87
2023/12/07 06:01:37;;;;;;;15.93;10.20;;;5.60;78.10;3.80;96709.00;;;;5033595;28;20300;-87
2023/12/07 06:04:04;;;;;;;14.77;10.87;;;5.60;78.00;3.70;96711.00;;;;5033236;28;20195;-87
2023/12/07 06:06:31;;;;;;;14.07;10.13;;;5.50;77.90;3.70;96711.00;;;;5032942;28;20240;-87
2023/12/07 06:08:58;;;;;;;14.40;10.87;;;5.60;77.90;3.60;96703.00;;;;5033085;28;20596;-87
2023/12/07 06:11:27;;;;;;;11.47;8.87;;;5.40;77.80;3.60;96699.00;;;;5026432;28;20225;-87
2023/12/07 06:13:55;;;;;;;12.33;9.43;;;5.40;77.90;3.60;96706.00;;;;5031004;28;20193;-88
2023/12/07 06:16:22;;;;;;;12.13;10.40;;;5.40;78.20;3.60;96710.00;;;;5032622;28;20202;-87
2023/12/07 06:18:49;;;;;;;12.40;9.97;;;5.40;78.50;3.60;96704.00;;;;5032851;28;20206;-87
2023/12/07 06:21:16;;;;;;;13.00;10.43;;;5.40;78.60;3.60;96707.00;;;;5032864;28;20251;-88
2023/12/07 06:23:46;;;;;;;12.60;9.63;;;5.50;78.50;3.50;96704.00;;;;5033876;28;20201;-88
2023/12/07 06:26:13;;;;;;;12.40;9.53;;;5.30;78.10;3.50;96710.00;;;;5032162;28;20204;-88
2023/12/07 06:28:45;;;;;;;15.97;10.30;;;5.30;77.80;3.40;96705.00;;;;5034022;28;20232;-87
2023/12/07 06:31:15;;;;;;;12.83;9.60;;;5.20;77.60;3.40;96700.00;;;;5033016;28;20308;-88
2023/12/07 06:33:45;;;;;;;13.73;9.63;;;5.20;77.60;3.40;96705.00;;;;5032963;28;20647;-88
2023/12/07 06:36:18;;;;;;;12.93;10.13;;;5.20;77.60;3.30;96701.00;;;;5033899;28;20224;-85
2023/12/07 06:38:46;;;;;;;12.27;10.10;;;5.20;77.40;3.30;96708.00;;;;5033934;28;20730;-87
2023/12/07 06:41:13;;;;;;;14.87;9.97;;;5.10;78.10;3.30;96719.00;;;;5034108;28;20241;-87
2023/12/07 06:43:40;;;;;;;11.20;8.80;;;5.10;77.60;3.20;96708.00;;;;5035396;28;20251;-86
2023/12/07 06:46:09;;;;;;;13.40;10.00;;;5.10;77.60;3.20;96708.00;;;;5035555;28;20205;-86
2023/12/07 06:48:38;;;;;;;10.73;8.73;;;5.10;77.30;3.20;96704.00;;;;5033443;28;20208;-86
2023/12/07 06:51:06;;;;;;;11.77;9.30;;;5.10;77.30;3.10;96712.00;;;;5035377;28;20247;-86
2023/12/07 06:53:33;;;;;;;15.70;10.47;;;5.10;77.50;3.10;96714.00;;;;5035050;28;20221;-86
2023/12/07 06:56:00;;;;;;;11.40;9.10;;;5.00;77.50;3.10;96716.00;;;;5008876;28;20221;-86
2023/12/07 06:58:28;;;;;;;11.90;9.60;;;5.00;77.60;3.10;96722.00;;;;5027328;28;20288;-86
2023/12/07 07:00:55;;;;;;;12.37;9.40;;;5.00;77.80;3.10;96727.00;;;;5034749;28;20227;-86
2023/12/07 07:03:24;;;;;;;10.80;8.93;;;5.00;77.70;3.10;96730.00;;;;5034420;28;20697;-86
2023/12/07 07:05:51;;;;;;;12.37;8.90;;;5.00;77.50;3.00;96726.00;;;;5034080;28;20204;-86
2023/12/07 07:08:19;;;;;;;12.70;9.83;;;5.00;77.40;3.00;96729.00;;;;5034227;28;20211;-85
2023/12/07 07:10:46;;;;;;;12.07;9.73;;;5.00;77.60;3.00;96731.00;;;;5033547;28;20695;-86
2023/12/07 07:13:14;;;;;;;11.20;8.97;;;5.00;77.70;3.00;96731.00;;;;5033298;28;20677;-86
2023/12/07 07:15:44;;;;;;;12.70;9.73;;;5.00;77.70;3.00;96733.00;;;;5033047;28;20287;-86
2023/12/07 07:18:11;;;;;;;13.07;9.63;;;5.00;77.70;3.00;96721.00;;;;5033796;28;20231;-86
2023/12/07 07:20:40;;;;;;;13.00;9.63;;;5.00;77.70;3.00;96733.00;;;;5034120;28;20744;-86
2023/12/07 07:23:09;;;;;;;13.40;9.63;;;5.00;77.60;3.00;96731.00;;;;5034488;28;20274;-85
2023/12/07 07:25:36;;;;;;;11.00;8.20;;;5.00;77.70;3.00;96743.00;;;;5033292;28;20241;-86
2023/12/07 07:28:04;;;;;;;12.63;9.20;;;5.10;77.80;3.00;96736.00;;;;5032137;28;20209;-86
2023/12/07 07:30:31;;;;;;;11.70;9.13;;;5.00;77.90;3.10;96747.00;;;;5033834;28;20727;-85
2023/12/07 07:32:58;;;;;;;13.30;9.73;;;5.00;78.10;3.10;96740.00;;;;5033154;28;20292;-85
2023/12/07 07:35:27;;;;;;;11.67;8.97;;;5.00;78.90;3.10;96752.00;;;;5025540;28;20227;-86
2023/12/07 07:37:56;;;;;;;12.17;9.73;;;5.00;78.20;3.10;96746.00;;;;5033954;28;20228;-86
2023/12/07 07:40:24;;;;;;;13.00;9.17;;;5.00;78.20;3.20;96747.00;;;;5032670;28;20209;-85
2023/12/07 07:42:51;;;;;;;11.40;8.97;;;5.10;78.60;3.20;96741.00;;;;5032497;28;20204;-86
2023/12/07 07:45:19;;;;;;;12.40;9.97;;;5.10;78.50;3.20;96745.00;;;;5033183;28;20209;-86
2023/12/07 07:47:46;;;;;;;13.27;10.13;;;5.10;78.40;3.30;96751.00;;;;5032058;28;20201;-86
2023/12/07 07:50:13;;;;;;;12.87;9.53;;;5.70;79.00;3.30;96751.00;;;;5031002;28;20218;-85
2023/12/07 07:52:41;;;;;;;13.37;10.33;;;5.20;78.80;3.30;96747.00;;;;5011231;28;20220;-85
2023/12/07 07:55:12;;;;;;;11.83;9.37;;;5.20;78.90;3.40;96750.00;;;;5029783;28;20225;-86
2023/12/07 07:57:39;;;;;;;12.43;9.77;;;5.30;78.80;3.50;96748.00;;;;5033252;28;20197;-85
2023/12/07 08:00:09;;;;;;;12.77;9.70;;;5.30;79.10;3.50;96753.00;;;;5029843;28;20300;-86
2023/12/07 08:02:36;;;;;;;11.50;9.53;;;5.30;79.10;3.60;96748.00;;;;5029618;28;20705;-86
2023/12/07 08:05:03;;;;;;;12.63;10.10;;;5.40;79.20;3.60;96748.00;;;;5032134;28;20205;-86
2023/12/07 08:07:31;;;;;;;12.00;9.77;;;5.50;79.20;3.70;96744.00;;;;5029786;28;20204;-86
2023/12/07 08:09:58;;;;;;;14.67;10.47;;;5.50;79.20;3.70;96753.00;;;;5039408;28;20292;-86
2023/12/07 08:12:27;;;;;;;13.37;10.63;;;5.70;79.40;3.80;96748.00;;;;5040707;28;20252;-86
2023/12/07 08:14:54;;;;;;;13.80;10.20;;;5.60;79.40;3.90;96754.00;;;;5046303;28;20292;-87
2023/12/07 08:17:22;;;;;;;19.90;12.07;;;5.70;79.60;4.00;96759.00;;;;5057672;28;20207;-86
2023/12/07 08:19:49;;;;;;;22.97;14.83;;;5.70;79.60;4.00;96758.00;;;;5058151;28;20220;-86
2023/12/07 08:22:17;;;;;;;18.33;12.53;;;5.80;79.70;4.10;96757.00;;;;5057288;28;20189;-87
2023/12/07 08:24:44;;;;;;;17.30;11.60;;;5.90;79.60;4.10;96752.00;;;;5058477;28;20208;-86
2023/12/07 08:27:12;;;;;;;15.40;10.87;;;5.90;79.70;4.20;96752.00;;;;5055011;28;20228;-85
2023/12/07 08:29:40;;;;;;;12.93;10.43;;;6.00;79.80;4.30;96753.00;;;;5032997;28;20208;-85
2023/12/07 08:32:08;;;;;;;11.13;9.17;;;6.00;79.70;4.30;96751.00;;;;5031611;28;20753;-84
2023/12/07 08:34:37;;;;;;;11.20;9.43;;;6.10;79.70;4.40;96753.00;;;;5011408;28;20202;-86
2023/12/07 08:37:04;;;;;;;13.57;10.17;;;6.10;79.60;4.40;96752.00;;;;5029515;28;20226;-86
2023/12/07 08:39:31;;;;;;;12.73;9.60;;;6.20;79.70;4.50;96748.00;;;;5026574;28;20209;-85
2023/12/07 08:41:59;;;;;;;10.90;8.27;;;6.20;79.50;4.50;96754.00;;;;5028250;28;20225;-86
2023/12/07 08:44:26;;;;;;;10.90;7.87;;;6.30;79.30;4.50;96750.00;;;;5023650;28;20293;-86
2023/12/07 08:46:55;;;;;;;12.23;8.97;;;6.30;79.30;4.60;96758.00;;;;5031880;28;20205;-86
2023/12/07 08:49:22;;;;;;;11.77;9.10;;;6.40;79.40;4.60;96754.00;;;;5032192;28;20209;-86
2023/12/07 08:51:49;;;;;;;10.77;9.10;;;6.40;79.90;4.70;96757.00;;;;5031117;28;20217;-86
2023/12/07 08:54:17;;;;;;;11.53;9.13;;;6.40;78.90;4.70;96750.00;;;;5009187;28;20820;-87
2023/12/07 08:56:45;;;;;;;10.27;8.37;;;6.50;78.90;4.80;96762.00;;;;5034567;28;20300;-87
2023/12/07 08:59:13;;;;;;;11.53;8.93;;;6.60;79.60;4.80;96758.00;;;;5034512;28;20582;-87
2023/12/07 09:01:40;;;;;;;11.37;8.77;;;6.60;79.00;4.90;96752.00;;;;5034090;28;20255;-88
2023/12/07 09:04:09;;;;;;;13.33;9.97;;;6.60;79.00;4.90;96756.00;;;;5033415;28;20733;-87
2023/12/07 09:06:37;;;;;;;15.90;11.23;;;6.70;78.80;4.90;96752.00;;;;5016790;28;20220;-87
2023/12/07 09:09:05;;;;;;;12.50;9.37;;;6.70;78.50;4.90;96751.00;;;;5034724;28;20212;-87
2023/12/07 09:11:32;;;;;;;11.67;8.60;;;6.90;78.60;5.00;96758.00;;;;5035346;28;20225;-87
2023/12/07 09:14:00;;;;;;;10.27;7.70;;;6.80;78.10;5.00;96754.00;;;;5026480;28;20212;-88
2023/12/07 09:16:28;;;;;;;9.30;7.47;;;6.80;77.70;5.00;96749.00;;;;5035141;28;20216;-87
2023/12/07 09:18:55;;;;;;;9.30;7.83;;;6.80;77.70;5.00;96742.00;;;;5036287;28;20809;-86
2023/12/07 09:21:24;;;;;;;8.30;7.40;;;6.80;77.50;5.00;96742.00;;;;5017752;28;20712;-87
2023/12/07 09:23:52;;;;;;;9.87;7.87;;;6.80;77.50;5.00;96748.00;;;;5041333;28;20228;-85
2023/12/07 09:26:18;;;;;;;8.37;7.30;;;6.80;77.70;5.00;96746.00;;;;5034621;28;20275;-85
2023/12/07 09:28:45;;;;;;;8.60;7.70;;;6.80;77.40;5.00;96747.00;;;;5034900;28;20197;-85
2023/12/07 09:31:13;;;;;;;8.43;7.27;;;6.80;77.30;5.00;96732.00;;;;5034569;28;20229;-85
2023/12/07 09:33:40;;;;;;;8.03;6.67;;;6.80;77.30;5.00;96740.00;;;;5033946;28;20646;-85
2023/12/07 09:36:08;;;;;;;7.93;6.97;;;6.80;77.80;5.10;96744.00;;;;5033878;28;20593;-85
2023/12/07 09:38:38;;;;;;;9.83;7.80;;;6.80;78.30;5.20;96749.00;;;;5034634;28;20212;-85
2023/12/07 09:41:06;;;;;;;9.13;7.37;;;6.90;79.00;5.30;96750.00;;;;5036041;28;20221;-85
2023/12/07 09:43:33;;;;;;;10.73;7.90;;;7.00;80.30;5.50;96740.00;;;;5018671;28;20235;-84
2023/12/07 09:46:01;;;;;;;10.30;8.27;;;7.20;81.70;5.80;96748.00;;;;5035217;28;20215;-85
2023/12/07 09:48:29;;;;;;;8.80;7.50;;;7.40;82.90;6.10;96750.00;;;;5006895;28;20651;-84
2023/12/07 09:50:58;;;;;;;10.13;7.67;;;7.50;83.70;6.40;96747.00;;;;5030813;28;20232;-85
2023/12/07 09:53:25;;;;;;;9.90;7.53;;;7.90;84.40;6.60;96750.00;;;;5018386;28;20215;-84
2023/12/07 09:55:53;;;;;;;7.23;6.10;;;8.20;85.10;6.90;96760.00;;;;5034750;28;20716;-84
2023/12/07 09:58:22;;;;;;;8.30;7.50;;;8.50;85.00;7.20;96760.00;;;;5034722;28;20651;-83
2023/12/07 10:00:49;;;;;;;7.20;6.47;;;8.70;85.20;7.50;96748.00;;;;5017431;28;20217;-83
2023/12/07 10:03:23;;;;;;;8.13;7.03;;;9.00;85.30;7.70;96749.00;;;;5035413;28;20228;-84
2023/12/07 10:05:59;;;;;;;7.43;6.63;;;9.20;84.40;7.90;96750.00;;;;5033968;28;20256;-84
2023/12/07 10:08:27;;;;;;;7.30;6.60;;;9.50;83.90;8.10;96746.00;;;;5017261;28;20739;-84
2023/12/07 10:11:07;;;;;;;6.77;6.07;;;9.70;84.00;8.20;96745.00;;;;5034664;28;20221;-84
2023/12/07 10:13:35;;;;;;;8.37;6.97;;;9.80;82.10;8.40;96739.00;;;;5035034;28;20225;-84
2023/12/07 10:16:11;;;;;;;7.13;6.37;;;10.00;82.70;8.50;96741.00;;;;5035430;28;20319;-84
2023/12/07 10:18:40;;;;;;;7.97;7.17;;;10.20;81.40;8.60;96740.00;;;;5033350;28;20291;-84
2023/12/07 10:21:09;;;;;;;9.10;6.30;;;10.20;81.90;8.70;96742.00;;;;5032927;28;20603;-84
2023/12/07 10:23:37;;;;;;;7.90;6.67;;;10.30;81.40;8.80;96744.00;;;;5030846;28;20205;-84
2023/12/07 10:26:07;;;;;;;7.60;6.73;;;10.50;81.10;8.80;96741.00;;;;5034280;28;20197;-85
2023/12/07 10:28:36;;;;;;;7.13;6.40;;;10.40;80.10;8.80;96736.00;;;;5033005;28;20276;-84
2023/12/07 10:31:04;;;;;;;6.80;6.07;;;10.50;79.30;8.80;96736.00;;;;5030061;28;20754;-84
2023/12/07 10:33:32;;;;;;;6.43;5.83;;;10.40;78.30;8.70;96743.00;;;;5030472;28;20201;-84
2023/12/07 10:35:59;;;;;;;6.70;5.93;;;10.40;77.10;8.60;96736.00;;;;5032291;28;20224;-86
2023/12/07 10:38:27;;;;;;;6.50;5.20;;;10.30;75.80;8.40;96723.00;;;;5033088;28;20208;-85
2023/12/07 10:41:08;;;;;;;6.07;5.47;;;10.20;74.50;8.30;96719.00;;;;5030425;28;20214;-85
2023/12/07 10:43:39;;;;;;;6.77;6.07;;;10.10;73.40;8.10;96712.00;;;;5027093;28;20212;-85
2023/12/07 10:46:09;;;;;;;6.77;6.13;;;9.90;74.00;7.90;96717.00;;;;5036789;28;20197;-85
2023/12/07 10:48:39;;;;;;;6.50;5.47;;;9.80;73.80;7.80;96710.00;;;;5042116;28;20200;-89
2023/12/07 10:51:11;;;;;;;7.13;5.97;;;9.70;73.60;7.70;96707.00;;;;5058196;28;20212;-89
2023/12/07 10:53:43;;;;;;;8.77;7.37;;;9.50;73.70;7.60;96701.00;;;;5058128;28;20185;-88
2023/12/07 10:56:30;;;;;;;8.47;6.90;;;9.40;73.60;7.40;96702.00;;;;5058396;28;20231;-89
2023/12/07 10:58:59;;;;;;;8.87;7.70;;;9.20;73.80;7.30;96703.00;;;;5058308;28;20197;-88
2023/12/07 11:01:28;;;;;;;9.93;8.03;;;9.20;74.20;7.20;96703.00;;;;5056633;28;20221;-85
2023/12/07 11:03:57;;;;;;;9.73;7.90;;;9.00;74.10;7.10;96703.00;;;;5039545;28;20236;-85
2023/12/07 11:06:25;;;;;;;10.60;8.20;;;8.90;73.80;7.00;96701.00;;;;5031571;28;20670;-86